logo
Search for airport 
image banner adimage banner adimage banner ad
image banner ad

SBMA - Joao Correa Da Rocha

Located in Maraba, Brazil

ICAO - SBMA, IATA - MAB

Data provided by Airmate  

General information

Coordinates: S5°22'5" W49°8'17"
Elevation is 357 feet MSL.
Magnetic variation is -20.713747341° East
View others Airports in Pará

Operational data

Special qualification required
Current time UTC:
Current local time:
Weather
METAR: SBMA 152100Z 19006KT CAVOK 33/15 Q1013
TAF: TAF SBMA 152005Z 1600/1612 00000KT CAVOK TN23/1604Z TX29/1612Z BECMG 1608/1610 09005KT RMK PHD
View NOTAMs / SUP AIP / TFR affecting this airport [VIEW]
Communications frequencies: [VIEW]

Runways:

RWY identifierQFULength (ft)Width (ft)SurfaceLDA (ft)
256562148ASPH
076562148ASPH

Airport contact information

Address: Maraba Brazil

Satellite view of SBMA